createdAt,value
2019-02-11T00:00:03.844Z,14.00
2019-02-11T00:01:03.832Z,13.90
2019-02-11T00:02:03.847Z,13.50
2019-02-11T00:03:03.813Z,14.80
2019-02-11T00:04:03.803Z,13.40
2019-02-11T00:05:03.796Z,14.10
2019-02-11T00:06:03.767Z,14.10
2019-02-11T00:07:03.789Z,14.00
2019-02-11T00:08:03.744Z,15.10
2019-02-11T00:09:03.751Z,15.10
2019-02-11T00:10:03.733Z,14.10
2019-02-11T00:11:03.722Z,14.90
2019-02-11T00:12:03.751Z,14.50
2019-02-11T00:13:10.385Z,14.90
2019-02-11T00:14:04.694Z,14.90
2019-02-11T00:15:03.681Z,13.80
2019-02-11T00:16:03.668Z,12.80
2019-02-11T00:17:03.691Z,12.60
2019-02-11T00:18:03.656Z,13.20
2019-02-11T00:19:03.639Z,13.30
2019-02-11T00:20:03.648Z,13.40
2019-02-11T00:21:03.619Z,13.80
2019-02-11T00:22:03.637Z,14.00
2019-02-11T00:23:03.618Z,13.40
2019-02-11T00:24:03.587Z,13.80
2019-02-11T00:25:03.578Z,14.40
2019-02-11T00:26:03.562Z,13.10
2019-02-11T00:27:03.557Z,12.30
2019-02-11T00:28:03.570Z,12.10
2019-02-11T00:29:03.529Z,13.30
2019-02-11T00:30:03.526Z,12.60
2019-02-11T00:31:03.506Z,14.00
2019-02-11T00:32:03.506Z,13.40
2019-02-11T00:33:03.518Z,13.70
2019-02-11T00:34:03.479Z,13.40
2019-02-11T00:35:03.463Z,13.30
2019-02-11T00:36:03.469Z,14.70
2019-02-11T00:37:03.440Z,14.50
2019-02-11T00:38:03.458Z,13.90
2019-02-11T00:39:03.423Z,12.50
2019-02-11T00:40:03.419Z,13.90
2019-02-11T00:41:03.401Z,13.60
2019-02-11T00:42:03.388Z,13.60
2019-02-11T00:43:03.404Z,13.20
2019-02-11T00:44:03.370Z,13.50
2019-02-11T00:45:03.367Z,14.10
2019-02-11T00:46:03.356Z,14.80
2019-02-11T00:47:14.392Z,13.70
2019-02-11T00:48:03.350Z,12.90
2019-02-11T00:49:03.313Z,12.10
2019-02-11T00:50:03.306Z,12.40
2019-02-11T00:51:03.360Z,12.60
2019-02-11T00:52:03.281Z,11.60
2019-02-11T00:53:03.319Z,12.40
2019-02-11T00:54:03.257Z,13.90
2019-02-11T00:55:03.293Z,13.30
2019-02-11T00:56:03.256Z,12.50
2019-02-11T00:57:03.262Z,12.50
2019-02-11T00:58:03.244Z,13.80
2019-02-11T00:59:03.204Z,12.80
2019-02-11T01:00:03.207Z,13.30
2019-02-11T01:01:03.197Z,12.10
2019-02-11T01:02:03.175Z,14.10
2019-02-11T01:03:03.202Z,12.90
2019-02-11T01:04:03.158Z,13.30
2019-02-11T01:05:03.154Z,14.00
2019-02-11T01:06:03.138Z,12.40
2019-02-11T01:07:03.131Z,13.00
2019-02-11T01:08:03.151Z,13.60
2019-02-11T01:09:03.111Z,13.40
2019-02-11T01:10:03.100Z,11.90
2019-02-11T01:11:03.093Z,13.10
2019-02-11T01:12:03.081Z,12.80
2019-02-11T01:13:03.097Z,13.20
2019-02-11T01:14:03.058Z,12.40
2019-02-11T01:15:03.052Z,11.40
2019-02-11T01:16:03.034Z,13.40
2019-02-11T01:17:03.025Z,12.30
2019-02-11T01:18:03.049Z,12.80
2019-02-11T01:19:03.004Z,13.70
2019-02-11T01:20:02.988Z,14.20
2019-02-11T01:21:02.987Z,14.00
2019-02-11T01:22:02.970Z,12.90
2019-02-11T01:23:11.556Z,14.20
2019-02-11T01:24:03.016Z,13.20
2019-02-11T01:25:02.955Z,12.50
2019-02-11T01:26:02.931Z,13.90
2019-02-11T01:27:02.930Z,12.80
2019-02-11T01:28:02.937Z,12.60
2019-02-11T01:29:02.920Z,13.40
2019-02-11T01:30:02.909Z,11.90
2019-02-11T01:31:02.895Z,11.90
2019-02-11T01:32:02.884Z,13.40
2019-02-11T01:33:02.886Z,12.50
2019-02-11T01:34:02.861Z,12.70
2019-02-11T01:35:02.836Z,12.30
2019-02-11T01:36:02.939Z,10.70
2019-02-11T01:37:02.819Z,10.60
2019-02-11T01:38:02.837Z,11.50
2019-02-11T01:39:02.788Z,10.80
2019-02-11T01:40:02.791Z,10.40
2019-02-11T01:41:02.781Z,10.80
2019-02-11T01:42:17.427Z,10.30
2019-02-11T01:43:02.881Z,10.70
2019-02-11T01:44:02.798Z,10.20
2019-02-11T01:45:02.827Z,10.40
2019-02-11T01:46:02.772Z,8.90
2019-02-11T01:47:02.826Z,8.40
2019-02-11T01:48:02.739Z,8.70
2019-02-11T01:49:02.702Z,9.50
2019-02-11T01:50:02.715Z,10.20
2019-02-11T01:51:02.696Z,8.70
2019-02-11T01:52:02.651Z,9.10
2019-02-11T01:53:02.663Z,8.10
2019-02-11T01:54:02.626Z,9.10
2019-02-11T01:55:02.618Z,8.80
2019-02-11T01:56:02.613Z,8.70
2019-02-11T01:57:02.594Z,8.40
2019-02-11T01:58:02.631Z,8.40
2019-02-11T01:59:02.581Z,8.30
2019-02-11T02:00:02.572Z,8.50
2019-02-11T02:01:02.547Z,8.40
2019-02-11T02:02:02.539Z,8.70
2019-02-11T02:03:02.575Z,8.00
2019-02-11T02:04:02.508Z,9.00
2019-02-11T02:05:02.517Z,8.60
2019-02-11T02:06:02.504Z,9.40
2019-02-11T02:07:02.492Z,8.90
2019-02-11T02:08:02.498Z,9.70
2019-02-11T02:09:02.457Z,9.20
2019-02-11T02:10:02.443Z,8.80
2019-02-11T02:11:02.441Z,9.20
2019-02-11T02:12:02.439Z,8.10
2019-02-11T02:13:02.457Z,7.20
2019-02-11T02:14:02.426Z,6.70
2019-02-11T02:15:02.397Z,8.20
2019-02-11T02:16:02.390Z,8.40
2019-02-11T02:17:02.383Z,8.60
2019-02-11T02:18:02.372Z,9.40
2019-02-11T02:19:02.390Z,8.20
2019-02-11T02:20:02.341Z,8.90
2019-02-11T02:21:02.346Z,9.00
2019-02-11T02:22:02.330Z,10.10
2019-02-11T02:23:02.318Z,11.00
2019-02-11T02:24:02.324Z,9.60
2019-02-11T02:25:02.297Z,10.40
2019-02-11T02:26:02.285Z,8.40
2019-02-11T02:27:02.272Z,9.60
2019-02-11T02:28:02.262Z,9.80
2019-02-11T02:29:02.393Z,9.90
2019-02-11T02:30:02.392Z,8.80
2019-02-11T02:31:02.318Z,8.80
2019-02-11T02:32:02.284Z,9.40
2019-02-11T02:33:02.334Z,9.60
2019-02-11T02:34:02.339Z,8.80
2019-02-11T02:35:02.184Z,8.70
2019-02-11T02:36:02.170Z,8.80
2019-02-11T02:37:02.165Z,8.80
2019-02-11T02:38:02.151Z,9.80
2019-02-11T02:39:02.175Z,9.60
2019-02-11T02:40:02.140Z,10.10
2019-02-11T02:41:02.118Z,10.40
2019-02-11T02:42:02.116Z,9.50
2019-02-11T02:43:02.094Z,10.20
2019-02-11T02:44:02.121Z,7.90
2019-02-11T02:45:02.076Z,9.60
2019-02-11T02:46:02.069Z,9.30
2019-02-11T02:47:02.049Z,9.10
2019-02-11T02:48:02.050Z,10.20
2019-02-11T02:49:02.066Z,8.90
2019-02-11T02:50:02.031Z,9.30
2019-02-11T02:51:02.016Z,9.50
2019-02-11T02:52:02.011Z,10.40
2019-02-11T02:53:12.912Z,10.20
2019-02-11T02:54:01.995Z,9.80
2019-02-11T02:55:01.967Z,9.30
2019-02-11T02:56:01.940Z,10.20
2019-02-11T02:57:01.927Z,9.10
2019-02-11T02:58:01.917Z,8.60
2019-02-11T02:59:01.930Z,8.90
2019-02-11T03:00:01.906Z,9.70
2019-02-11T03:01:01.887Z,9.10
2019-02-11T03:02:01.874Z,10.50
2019-02-11T03:03:01.865Z,10.30
2019-02-11T03:04:01.880Z,10.40
2019-02-11T03:05:01.843Z,10.00
2019-02-11T03:06:01.834Z,9.10
2019-02-11T03:07:01.817Z,9.90
2019-02-11T03:08:01.809Z,10.20
2019-02-11T03:09:01.831Z,10.40
2019-02-11T03:10:01.793Z,8.90
2019-02-11T03:11:01.780Z,8.90
2019-02-11T03:12:01.766Z,9.00
2019-02-11T03:13:01.756Z,10.00
2019-02-11T03:14:05.731Z,9.40
2019-02-11T03:15:01.768Z,9.40
2019-02-11T03:16:01.722Z,9.00
2019-02-11T03:17:01.720Z,9.10
2019-02-11T03:18:01.701Z,9.40
2019-02-11T03:19:01.725Z,8.70
2019-02-11T03:20:01.683Z,9.50
2019-02-11T03:21:01.674Z,10.20
2019-02-11T03:22:01.665Z,8.90
2019-02-11T03:23:01.651Z,10.30
2019-02-11T03:24:01.673Z,8.80
2019-02-11T03:25:01.633Z,8.90
2019-02-11T03:26:01.621Z,9.00
2019-02-11T03:27:01.612Z,9.40
2019-02-11T03:28:01.592Z,8.60
2019-02-11T03:29:01.610Z,8.40
2019-02-11T03:30:01.574Z,8.30
2019-02-11T03:31:01.561Z,8.50
2019-02-11T03:32:01.557Z,7.70
2019-02-11T03:33:01.548Z,8.50
2019-02-11T03:34:01.561Z,8.30
2019-02-11T03:35:01.524Z,8.50
2019-02-11T03:36:01.561Z,9.70
2019-02-11T03:37:01.496Z,9.20
2019-02-11T03:38:01.489Z,9.30
2019-02-11T03:39:01.505Z,9.60
2019-02-11T03:40:01.461Z,8.50
2019-02-11T03:41:01.452Z,7.70
2019-02-11T03:42:01.450Z,8.60
2019-02-11T03:43:01.432Z,8.50
2019-02-11T03:44:01.445Z,8.20
2019-02-11T03:45:01.414Z,8.80
2019-02-11T03:46:01.398Z,8.40
2019-02-11T03:47:01.390Z,9.50
2019-02-11T03:48:01.381Z,8.40
2019-02-11T03:49:01.392Z,8.80
2019-02-11T03:50:01.366Z,7.90
2019-02-11T03:51:01.344Z,8.70
2019-02-11T03:52:01.338Z,8.60
2019-02-11T03:53:01.331Z,9.30
2019-02-11T03:54:01.354Z,9.10
2019-02-11T03:55:01.305Z,10.30
2019-02-11T03:56:01.291Z,9.10
2019-02-11T03:57:01.292Z,9.10
2019-02-11T03:58:01.273Z,9.60
2019-02-11T03:59:01.256Z,10.10
2019-02-11T04:00:01.278Z,10.30
2019-02-11T04:01:01.243Z,9.10
2019-02-11T04:02:01.226Z,9.30
2019-02-11T04:03:01.217Z,8.30
2019-02-11T04:04:01.207Z,9.10
2019-02-11T04:05:01.223Z,10.00
2019-02-11T04:06:01.186Z,8.00
2019-02-11T04:07:01.177Z,4.30
2019-02-11T04:08:01.164Z,4.60
2019-02-11T04:09:01.152Z,3.70
2019-02-11T04:10:01.170Z,3.40
2019-02-11T04:11:01.128Z,3.00
2019-02-11T04:12:01.123Z,3.50
2019-02-11T04:13:01.120Z,4.60
2019-02-11T04:14:01.097Z,5.40
2019-02-11T04:15:01.120Z,4.10
2019-02-11T04:16:01.078Z,4.30
2019-02-11T04:17:01.067Z,4.10
2019-02-11T04:18:01.056Z,5.30
2019-02-11T04:19:01.052Z,4.70
2019-02-11T04:20:01.063Z,6.10
2019-02-11T04:21:01.023Z,7.70
2019-02-11T04:22:01.016Z,10.80
2019-02-11T04:23:01.009Z,10.80
2019-02-11T04:24:00.996Z,11.90
2019-02-11T04:25:01.019Z,11.30
2019-02-11T04:26:00.968Z,11.30
2019-02-11T04:27:00.969Z,11.10
2019-02-11T04:28:00.950Z,10.60
2019-02-11T04:29:00.944Z,10.90
2019-02-11T04:30:00.970Z,9.80
2019-02-11T04:31:00.919Z,10.60
2019-02-11T04:32:00.906Z,10.60
2019-02-11T04:33:00.901Z,9.80
2019-02-11T04:34:00.887Z,10.50
2019-02-11T04:35:00.901Z,10.20
2019-02-11T04:36:00.876Z,9.80
2019-02-11T04:37:00.910Z,9.70
2019-02-11T04:38:00.848Z,10.10
2019-02-11T04:39:00.879Z,9.50
2019-02-11T04:40:00.934Z,9.10
2019-02-11T04:41:00.823Z,8.90
2019-02-11T04:42:00.807Z,8.90
2019-02-11T04:43:00.864Z,8.80
2019-02-11T04:44:00.778Z,10.20
2019-02-11T04:45:00.801Z,8.80
2019-02-11T04:46:00.756Z,9.40
2019-02-11T04:47:00.746Z,9.00
2019-02-11T04:48:00.745Z,9.20
2019-02-11T04:49:00.734Z,8.40
2019-02-11T04:50:00.753Z,8.50
2019-02-11T04:51:00.704Z,9.00
2019-02-11T04:52:00.701Z,8.80
2019-02-11T04:53:00.681Z,8.10
2019-02-11T04:54:00.833Z,8.40
2019-02-11T04:55:00.684Z,8.50
2019-02-11T04:56:00.649Z,8.80
2019-02-11T04:57:00.640Z,8.70
2019-02-11T04:58:00.628Z,8.60
2019-02-11T04:59:00.626Z,8.60
2019-02-11T05:00:00.634Z,8.30
2019-02-11T05:01:00.598Z,7.80
2019-02-11T05:02:00.586Z,9.30
2019-02-11T05:03:00.585Z,9.00
2019-02-11T05:04:00.567Z,8.00
2019-02-11T05:05:00.596Z,8.20
2019-02-11T05:06:00.549Z,8.30
2019-02-11T05:07:00.535Z,7.20
2019-02-11T05:08:00.523Z,7.20
2019-02-11T05:09:00.517Z,7.00
2019-02-11T05:10:00.504Z,7.00
2019-02-11T05:11:00.522Z,7.10
2019-02-11T05:12:00.482Z,7.70
2019-02-11T05:13:00.473Z,6.90
2019-02-11T05:14:00.461Z,6.10
2019-02-11T05:15:00.444Z,7.60
2019-02-11T05:16:00.466Z,7.40
2019-02-11T05:17:00.433Z,6.80
2019-02-11T05:18:00.415Z,6.50
2019-02-11T05:19:00.404Z,6.00
2019-02-11T05:20:00.395Z,6.80
2019-02-11T05:21:00.414Z,6.50
2019-02-11T05:22:00.372Z,6.30
2019-02-11T05:23:00.363Z,7.30
2019-02-11T05:24:00.349Z,7.70
2019-02-11T05:25:00.426Z,7.30
2019-02-11T05:26:00.359Z,6.10
2019-02-11T05:27:00.319Z,6.00
2019-02-11T05:28:00.317Z,5.90
2019-02-11T05:29:00.293Z,6.90
2019-02-11T05:30:00.316Z,5.80
2019-02-11T05:31:00.525Z,6.40
2019-02-11T05:32:00.273Z,5.60
2019-02-11T05:33:00.439Z,5.70
2019-02-11T05:34:00.252Z,5.60
2019-02-11T05:35:00.341Z,5.70
2019-02-11T05:36:00.263Z,5.40
2019-02-11T05:37:00.211Z,5.60
2019-02-11T05:38:00.200Z,5.90
2019-02-11T05:39:00.196Z,6.60
2019-02-11T05:40:00.300Z,5.40
2019-02-11T05:41:00.191Z,5.50
2019-02-11T05:42:00.159Z,5.90
2019-02-11T05:43:00.141Z,5.80
2019-02-11T05:44:00.135Z,5.60
2019-02-11T05:45:00.248Z,5.40
2019-02-11T05:46:00.141Z,6.70
2019-02-11T05:47:00.104Z,5.80
2019-02-11T05:48:00.096Z,6.20
2019-02-11T05:49:00.080Z,7.10
2019-02-11T05:50:00.203Z,7.20
2019-02-11T05:51:00.084Z,6.90
2019-02-11T05:52:00.046Z,6.10
2019-02-11T05:53:00.036Z,6.10
2019-02-11T05:54:00.024Z,6.50
2019-02-11T05:55:00.016Z,6.50
2019-02-11T05:56:00.254Z,6.50
2019-02-11T05:57:00.002Z,6.30
2019-02-11T05:57:59.984Z,5.80
2019-02-11T05:58:59.976Z,6.40
2019-02-11T05:59:59.969Z,7.20
2019-02-11T06:00:59.988Z,6.60
2019-02-11T06:01:59.943Z,6.50
2019-02-11T06:02:59.929Z,6.80
2019-02-11T06:03:59.918Z,5.70
2019-02-11T06:04:59.913Z,6.50
2019-02-11T06:05:59.922Z,6.50
2019-02-11T06:06:59.888Z,6.10
2019-02-11T06:07:59.877Z,6.50
2019-02-11T06:08:59.866Z,6.70
2019-02-11T06:09:59.873Z,6.50
2019-02-11T06:10:59.872Z,6.10
2019-02-11T06:11:59.836Z,6.60
2019-02-11T06:12:59.829Z,6.50
2019-02-11T06:13:59.822Z,6.00
2019-02-11T06:15:04.197Z,7.20
2019-02-11T06:16:00.837Z,7.20
2019-02-11T06:16:59.787Z,7.00
2019-02-11T06:17:59.769Z,6.30
2019-02-11T06:18:59.764Z,6.70
2019-02-11T06:19:59.754Z,5.90
2019-02-11T06:20:59.739Z,7.10
2019-02-11T06:21:59.755Z,6.80
2019-02-11T06:22:59.716Z,7.20
2019-02-11T06:23:59.706Z,7.10
2019-02-11T06:24:59.697Z,7.50
2019-02-11T06:25:59.698Z,6.90
2019-02-11T06:26:59.704Z,7.30
2019-02-11T06:27:59.664Z,7.90
2019-02-11T06:28:59.657Z,8.90
2019-02-11T06:29:59.644Z,7.80
2019-02-11T06:30:59.634Z,8.70
2019-02-11T06:31:59.647Z,7.10
2019-02-11T06:32:59.614Z,8.20
2019-02-11T06:33:59.601Z,8.20
2019-02-11T06:34:59.592Z,8.30
2019-02-11T06:35:59.580Z,8.70
2019-02-11T06:36:59.601Z,8.50
2019-02-11T06:37:59.559Z,8.40
2019-02-11T06:38:59.550Z,9.30
2019-02-11T06:39:59.542Z,8.90
2019-02-11T06:40:59.525Z,8.70
2019-02-11T06:41:59.550Z,8.70
2019-02-11T06:42:59.508Z,9.00
2019-02-11T06:43:59.493Z,8.60
2019-02-11T06:44:59.486Z,8.40
2019-02-11T06:45:59.474Z,8.50
2019-02-11T06:46:59.494Z,8.20
2019-02-11T06:47:59.458Z,8.60
2019-02-11T06:48:59.444Z,8.90
2019-02-11T06:49:59.430Z,9.40
2019-02-11T06:50:59.429Z,8.40
2019-02-11T06:51:59.435Z,9.00
2019-02-11T06:52:59.400Z,8.30
2019-02-11T06:53:59.388Z,8.40
2019-02-11T06:54:59.387Z,9.10
2019-02-11T06:55:59.369Z,8.90
2019-02-11T06:56:59.388Z,9.30
2019-02-11T06:57:59.350Z,8.50
2019-02-11T06:58:59.336Z,8.80
2019-02-11T06:59:59.324Z,9.10
2019-02-11T07:00:59.317Z,8.60
2019-02-11T07:01:59.331Z,8.30
2019-02-11T07:02:59.294Z,8.60
2019-02-11T07:03:59.289Z,10.00
2019-02-11T07:04:59.272Z,9.60
2019-02-11T07:05:59.266Z,9.30
2019-02-11T07:06:59.272Z,10.00
2019-02-11T07:07:59.236Z,8.20
2019-02-11T07:08:59.224Z,8.50
2019-02-11T07:09:59.217Z,8.00
2019-02-11T07:10:59.204Z,8.40
2019-02-11T07:11:59.220Z,8.70
2019-02-11T07:12:59.183Z,7.80
2019-02-11T07:13:59.194Z,8.60
2019-02-11T07:14:59.168Z,9.30
2019-02-11T07:15:59.151Z,9.80
2019-02-11T07:16:59.163Z,9.10
2019-02-11T07:17:59.131Z,9.10
2019-02-11T07:18:59.118Z,9.30
2019-02-11T07:19:59.106Z,9.10
2019-02-11T07:20:59.100Z,8.70
2019-02-11T07:21:59.120Z,8.10
2019-02-11T07:22:59.075Z,8.60
2019-02-11T07:23:59.066Z,9.00
2019-02-11T07:24:59.059Z,8.60
2019-02-11T07:25:59.059Z,9.20
2019-02-11T07:26:59.055Z,10.00
2019-02-11T07:27:59.024Z,8.10
2019-02-11T07:28:59.058Z,8.70
2019-02-11T07:29:59.004Z,8.50
2019-02-11T07:30:58.984Z,8.90
2019-02-11T07:31:59.001Z,8.10
2019-02-11T07:32:58.968Z,7.70
2019-02-11T07:33:58.960Z,7.40
2019-02-11T07:34:58.951Z,7.00
2019-02-11T07:35:58.936Z,7.20
2019-02-11T07:36:58.953Z,6.70
2019-02-11T07:37:58.923Z,6.20
2019-02-11T07:38:58.906Z,7.80
2019-02-11T07:39:58.895Z,7.60
2019-02-11T07:40:58.886Z,6.60
2019-02-11T07:41:58.914Z,7.60
2019-02-11T07:42:58.857Z,6.00
2019-02-11T07:43:58.873Z,7.30
2019-02-11T07:44:58.839Z,6.30
2019-02-11T07:45:58.826Z,6.90
2019-02-11T07:46:58.818Z,7.30
2019-02-11T07:47:58.832Z,7.30
2019-02-11T07:48:58.797Z,9.10
2019-02-11T07:49:58.784Z,8.40
2019-02-11T07:50:58.779Z,8.50
2019-02-11T07:51:58.765Z,8.90
2019-02-11T07:52:58.782Z,7.30
2019-02-11T07:53:58.741Z,7.80
2019-02-11T07:54:58.728Z,9.20
2019-02-11T07:55:58.718Z,9.10
2019-02-11T07:56:58.711Z,9.10
2019-02-11T07:57:58.726Z,9.20
2019-02-11T07:58:58.688Z,9.10
2019-02-11T07:59:58.672Z,9.80
2019-02-11T08:00:58.666Z,9.50
2019-02-11T08:01:58.653Z,9.70
2019-02-11T08:02:58.674Z,10.50
2019-02-11T08:03:58.639Z,10.40
2019-02-11T08:04:58.624Z,10.50
2019-02-11T08:05:58.610Z,10.40
2019-02-11T08:06:58.605Z,11.20
2019-02-11T08:07:58.618Z,10.60
2019-02-11T08:08:58.578Z,11.30
2019-02-11T08:09:58.577Z,11.60
2019-02-11T08:10:58.554Z,11.80
2019-02-11T08:12:00.324Z,12.40
2019-02-11T08:12:58.564Z,12.30
2019-02-11T08:13:58.527Z,12.80
2019-02-11T08:14:58.509Z,12.20
2019-02-11T08:15:58.507Z,13.40
2019-02-11T08:16:58.504Z,13.90
2019-02-11T08:17:58.515Z,11.00
2019-02-11T08:18:58.468Z,12.90
2019-02-11T08:19:58.459Z,13.30
2019-02-11T08:20:58.448Z,15.30
2019-02-11T08:21:58.440Z,14.00
2019-02-11T08:22:58.456Z,14.30
2019-02-11T08:23:58.420Z,13.90
2019-02-11T08:24:58.406Z,14.60
2019-02-11T08:25:58.400Z,15.30
2019-02-11T08:26:58.385Z,15.00
2019-02-11T08:27:58.399Z,15.50
2019-02-11T08:28:58.363Z,13.50
2019-02-11T08:29:58.348Z,15.70
2019-02-11T08:30:58.341Z,14.70
2019-02-11T08:31:58.331Z,15.70
2019-02-11T08:32:58.344Z,15.90
2019-02-11T08:33:58.338Z,15.60
2019-02-11T08:34:58.292Z,15.20
2019-02-11T08:35:58.288Z,17.30
2019-02-11T08:36:58.276Z,16.60
2019-02-11T08:37:58.290Z,15.40
2019-02-11T08:38:58.260Z,15.60
2019-02-11T08:39:58.243Z,17.40
2019-02-11T08:40:58.233Z,18.20
2019-02-11T08:41:58.219Z,16.10
2019-02-11T08:42:58.244Z,16.10
2019-02-11T08:43:58.358Z,17.50
2019-02-11T08:44:58.203Z,15.70
2019-02-11T08:45:58.183Z,17.40
2019-02-11T08:46:58.168Z,16.20
2019-02-11T08:47:58.188Z,14.90
2019-02-11T08:48:58.148Z,14.90
2019-02-11T08:49:58.140Z,15.80
2019-02-11T08:50:58.124Z,17.20
2019-02-11T08:51:58.116Z,18.40
2019-02-11T08:53:07.489Z,17.10
2019-02-11T08:53:58.096Z,17.90
2019-02-11T08:54:58.081Z,18.00
2019-02-11T08:55:58.073Z,16.90
2019-02-11T08:56:58.065Z,17.40
2019-02-11T08:57:58.074Z,17.20
2019-02-11T08:58:58.043Z,17.70
2019-02-11T08:59:58.033Z,17.80
2019-02-11T09:00:58.015Z,16.70
2019-02-11T09:01:58.012Z,18.90
2019-02-11T09:02:58.066Z,19.50
2019-02-11T09:03:58.001Z,16.30
2019-02-11T09:04:57.983Z,19.00
2019-02-11T09:05:57.977Z,18.20
2019-02-11T09:06:57.974Z,19.10
2019-02-11T09:07:57.998Z,17.90
2019-02-11T09:08:57.945Z,17.80
2019-02-11T09:09:57.942Z,18.80
2019-02-11T09:10:57.934Z,18.20
2019-02-11T09:11:57.918Z,16.80
2019-02-11T09:12:57.933Z,16.70
2019-02-11T09:13:57.923Z,17.40
2019-02-11T09:14:57.883Z,16.20
2019-02-11T09:15:57.877Z,14.60
2019-02-11T09:16:57.863Z,15.00
2019-02-11T09:17:57.874Z,16.10
2019-02-11T09:18:57.875Z,14.60
2019-02-11T09:19:57.867Z,15.90
2019-02-11T09:20:57.823Z,14.40
2019-02-11T09:21:57.825Z,13.50
2019-02-11T09:22:57.795Z,13.60
2019-02-11T09:23:57.812Z,15.90
2019-02-11T09:24:57.781Z,15.20
2019-02-11T09:25:57.765Z,15.30
2019-02-11T09:27:05.504Z,15.50
2019-02-11T09:27:57.730Z,15.80
2019-02-11T09:28:57.747Z,13.40
2019-02-11T09:29:57.712Z,13.90
2019-02-11T09:30:57.696Z,12.80
2019-02-11T09:31:57.682Z,12.80
2019-02-11T09:32:57.673Z,13.90
2019-02-11T09:33:57.694Z,12.60
2019-02-11T09:34:57.663Z,13.80
2019-02-11T09:35:57.641Z,13.60
2019-02-11T09:36:57.634Z,12.10
2019-02-11T09:37:57.624Z,11.80
2019-02-11T09:38:57.652Z,13.40
2019-02-11T09:39:57.611Z,11.50
2019-02-11T09:40:57.613Z,12.00
2019-02-11T09:41:57.869Z,11.50
2019-02-11T09:42:57.581Z,11.90
2019-02-11T09:43:57.589Z,12.00
2019-02-11T09:44:57.556Z,11.30
2019-02-11T09:46:03.695Z,11.80
2019-02-11T09:46:58.567Z,11.90
2019-02-11T09:47:57.529Z,12.40
2019-02-11T09:48:57.563Z,11.20
2019-02-11T09:49:57.509Z,11.70
2019-02-11T09:50:57.499Z,9.60
2019-02-11T09:51:57.497Z,9.70
2019-02-11T09:52:57.470Z,9.80
2019-02-11T09:53:57.520Z,10.90
2019-02-11T09:54:57.464Z,9.90
2019-02-11T09:55:57.455Z,12.10
2019-02-11T09:56:57.457Z,9.00
2019-02-11T09:57:57.431Z,10.00
2019-02-11T09:58:57.452Z,9.80
2019-02-11T09:59:57.399Z,9.50
2019-02-11T10:00:57.414Z,7.90
2019-02-11T10:01:57.395Z,8.90
2019-02-11T10:02:57.383Z,8.40
2019-02-11T10:03:57.387Z,7.60
2019-02-11T10:04:57.342Z,7.50
2019-02-11T10:05:57.345Z,7.10
2019-02-11T10:06:57.326Z,7.80
2019-02-11T10:07:57.319Z,7.70
2019-02-11T10:08:57.340Z,8.20
2019-02-11T10:09:57.309Z,7.80
2019-02-11T10:10:57.284Z,7.00
2019-02-11T10:11:57.278Z,7.10
2019-02-11T10:12:57.259Z,8.40
2019-02-11T10:13:57.280Z,7.60
2019-02-11T10:14:57.238Z,8.20
2019-02-11T10:15:57.239Z,8.30
2019-02-11T10:16:57.215Z,8.00
2019-02-11T10:17:57.211Z,7.30
2019-02-11T10:18:57.230Z,7.10
2019-02-11T10:19:57.184Z,6.90
2019-02-11T10:20:57.174Z,6.80
2019-02-11T10:21:57.169Z,7.50
2019-02-11T10:22:57.165Z,6.60
2019-02-11T10:23:57.169Z,6.90
2019-02-11T10:24:57.138Z,7.00
2019-02-11T10:25:57.137Z,6.30
2019-02-11T10:26:57.134Z,7.60
2019-02-11T10:27:57.094Z,6.60
2019-02-11T10:28:57.115Z,6.50
2019-02-11T10:29:57.074Z,7.00
2019-02-11T10:30:57.070Z,6.50
2019-02-11T10:31:57.056Z,6.90
2019-02-11T10:32:57.043Z,7.10
2019-02-11T10:33:57.067Z,8.10
2019-02-11T10:34:57.024Z,7.50
2019-02-11T10:35:57.047Z,6.70
2019-02-11T10:36:57.020Z,7.10
2019-02-11T10:37:56.998Z,7.30
2019-02-11T10:38:57.026Z,7.20
2019-02-11T10:39:56.968Z,6.90
2019-02-11T10:40:56.959Z,7.90
2019-02-11T10:41:56.949Z,6.60
2019-02-11T10:42:56.943Z,6.70
2019-02-11T10:43:56.924Z,7.40
2019-02-11T10:44:56.943Z,6.80
2019-02-11T10:45:56.899Z,8.20
2019-02-11T10:46:56.905Z,7.50
2019-02-11T10:47:57.078Z,8.60
2019-02-11T10:48:56.874Z,8.00
2019-02-11T10:49:56.886Z,7.90
2019-02-11T10:50:56.855Z,7.20
2019-02-11T10:51:56.935Z,7.00
2019-02-11T10:52:56.831Z,7.50
2019-02-11T10:53:56.808Z,7.30
2019-02-11T10:54:56.840Z,7.10
2019-02-11T10:55:56.795Z,6.40
2019-02-11T10:56:56.795Z,5.60
2019-02-11T10:57:56.786Z,6.10
2019-02-11T10:58:56.774Z,6.80
2019-02-11T10:59:56.790Z,6.60
2019-02-11T11:00:56.741Z,5.90
2019-02-11T11:01:56.746Z,5.30
2019-02-11T11:02:56.727Z,7.30
2019-02-11T11:03:56.716Z,6.20
2019-02-11T11:04:56.727Z,5.70
2019-02-11T11:05:56.727Z,6.10
2019-02-11T11:06:56.674Z,5.20
2019-02-11T11:07:56.675Z,6.10
2019-02-11T11:08:56.658Z,5.30
2019-02-11T11:09:56.669Z,5.50
2019-02-11T11:10:56.635Z,5.50
2019-02-11T11:11:56.624Z,4.70
2019-02-11T11:12:56.620Z,6.20
2019-02-11T11:13:56.602Z,5.20
2019-02-11T11:14:56.622Z,5.50
2019-02-11T11:15:56.579Z,6.40
2019-02-11T11:16:56.566Z,6.70
2019-02-11T11:17:56.563Z,5.30
2019-02-11T11:18:56.546Z,6.10
2019-02-11T11:19:56.569Z,6.50
2019-02-11T11:20:56.531Z,6.00
2019-02-11T11:21:56.515Z,5.30
2019-02-11T11:22:56.519Z,5.40
2019-02-11T11:23:56.499Z,5.50
2019-02-11T11:24:56.512Z,5.60
2019-02-11T11:25:56.461Z,5.90
2019-02-11T11:26:56.454Z,6.00
2019-02-11T11:27:56.448Z,5.30
2019-02-11T11:28:56.439Z,5.70
2019-02-11T11:29:56.456Z,6.30
2019-02-11T11:30:56.424Z,6.70
2019-02-11T11:31:56.412Z,7.40
2019-02-11T11:32:56.392Z,6.30
2019-02-11T11:33:56.393Z,6.80
2019-02-11T11:34:56.400Z,7.00
2019-02-11T11:35:56.361Z,6.10
2019-02-11T11:36:56.361Z,6.80
2019-02-11T11:37:56.369Z,6.70
2019-02-11T11:38:56.331Z,6.70
2019-02-11T11:39:56.349Z,5.70
2019-02-11T11:40:56.309Z,5.90
2019-02-11T11:41:56.307Z,6.80
2019-02-11T11:42:56.292Z,6.00
2019-02-11T11:43:56.277Z,5.90
2019-02-11T11:44:56.291Z,6.20
2019-02-11T11:45:56.245Z,6.10
2019-02-11T11:46:56.250Z,4.90
2019-02-11T11:47:56.235Z,4.90
2019-02-11T11:48:56.223Z,4.80
2019-02-11T11:49:56.243Z,4.70
2019-02-11T11:50:56.203Z,5.20
2019-02-11T11:51:56.191Z,4.70
2019-02-11T11:52:56.177Z,4.60
2019-02-11T11:53:56.167Z,5.00
2019-02-11T11:54:56.197Z,5.20
2019-02-11T11:55:56.168Z,5.00
2019-02-11T11:56:59.161Z,5.40
2019-02-11T11:57:56.122Z,4.60
2019-02-11T11:58:56.142Z,5.30
2019-02-11T11:59:56.139Z,5.20
2019-02-11T12:00:56.194Z,5.20
2019-02-11T12:01:56.082Z,4.70
2019-02-11T12:03:04.686Z,5.20
2019-02-11T12:03:57.067Z,5.00
2019-02-11T12:04:56.100Z,4.70
2019-02-11T12:05:56.042Z,5.00
2019-02-11T12:06:56.049Z,4.70
2019-02-11T12:07:56.033Z,4.90
2019-02-11T12:08:59.030Z,4.80
2019-02-11T12:09:55.997Z,3.10
2019-02-11T12:10:56.018Z,3.60
2019-02-11T12:11:55.984Z,3.50
2019-02-11T12:12:55.971Z,3.50
2019-02-11T12:13:55.961Z,4.10
2019-02-11T12:14:55.949Z,3.40
2019-02-11T12:15:55.968Z,3.40
2019-02-11T12:17:02.297Z,4.00
2019-02-11T12:17:56.913Z,3.30
2019-02-11T12:18:55.914Z,3.50
2019-02-11T12:19:55.892Z,3.40
2019-02-11T12:20:56.040Z,4.00
2019-02-11T12:21:55.884Z,3.60
2019-02-11T12:22:56.052Z,3.20
2019-02-11T12:23:55.847Z,3.60
2019-02-11T12:24:55.845Z,3.10
2019-02-11T12:25:55.862Z,3.50
2019-02-11T12:26:55.834Z,3.60
2019-02-11T12:27:55.818Z,3.60
2019-02-11T12:28:55.817Z,3.80
2019-02-11T12:29:55.794Z,4.10
2019-02-11T12:30:55.804Z,4.00
2019-02-11T12:31:55.766Z,3.50
2019-02-11T12:32:56.374Z,4.00
2019-02-11T12:33:55.735Z,3.60
2019-02-11T12:34:55.863Z,3.20
2019-02-11T12:35:55.745Z,3.90
2019-02-11T12:36:55.715Z,3.40
2019-02-11T12:37:55.710Z,3.70
2019-02-11T12:38:55.697Z,4.00
2019-02-11T12:39:55.677Z,3.90
2019-02-11T12:40:55.744Z,3.50
2019-02-11T12:41:55.664Z,3.60
2019-02-11T12:42:55.668Z,3.10
2019-02-11T12:43:55.628Z,3.80
2019-02-11T12:44:55.616Z,4.00
2019-02-11T12:45:55.657Z,3.50
2019-02-11T12:47:12.785Z,4.10
2019-02-11T12:47:56.594Z,3.50
2019-02-11T12:48:55.578Z,3.70
2019-02-11T12:49:55.617Z,3.30
2019-02-11T12:50:55.583Z,4.10
2019-02-11T12:51:55.546Z,3.70
2019-02-11T12:52:55.559Z,3.80
2019-02-11T12:53:55.523Z,3.90
2019-02-11T12:54:55.522Z,3.80
2019-02-11T12:55:55.549Z,4.00
2019-02-11T12:56:55.504Z,4.00
2019-02-11T12:57:55.478Z,3.80
2019-02-11T12:58:55.469Z,5.10
2019-02-11T12:59:55.478Z,4.30
2019-02-11T13:00:55.485Z,4.20
2019-02-11T13:01:55.472Z,4.70
2019-02-11T13:02:55.440Z,4.20
2019-02-11T13:03:55.419Z,4.10
2019-02-11T13:04:55.417Z,4.10
2019-02-11T13:05:55.437Z,4.00
2019-02-11T13:06:55.399Z,4.40
2019-02-11T13:07:55.394Z,5.20
2019-02-11T13:08:55.383Z,4.40